createdAt,value
2022-10-17T00:01:11.440Z,18.29
2022-10-17T00:03:41.018Z,18.23
2022-10-17T00:06:12.928Z,18.12
2022-10-17T00:08:46.124Z,18.08
2022-10-17T00:11:18.790Z,18.00
2022-10-17T00:13:48.034Z,17.91
2022-10-17T00:16:17.090Z,17.84
2022-10-17T00:18:45.146Z,17.77
2022-10-17T00:21:17.580Z,17.72
2022-10-17T00:23:47.842Z,17.68
2022-10-17T00:26:16.836Z,17.65
2022-10-17T00:28:47.920Z,17.66
2022-10-17T00:31:18.201Z,17.61
2022-10-17T00:33:46.559Z,17.56
2022-10-17T00:36:19.860Z,17.56
2022-10-17T00:38:54.083Z,17.57
2022-10-17T00:41:25.358Z,17.52
2022-10-17T00:43:57.708Z,17.55
2022-10-17T00:46:28.663Z,17.50
2022-10-17T00:49:01.544Z,17.42
2022-10-17T00:51:35.680Z,17.38
2022-10-17T00:54:05.965Z,17.43
2022-10-17T00:56:35.099Z,17.40
2022-10-17T00:59:03.977Z,17.34
2022-10-17T01:01:32.295Z,17.34
2022-10-17T01:04:00.929Z,17.30
2022-10-17T01:06:29.380Z,17.27
2022-10-17T01:08:57.875Z,17.23
2022-10-17T01:11:40.579Z,17.19
2022-10-17T01:14:19.597Z,17.11
2022-10-17T01:16:57.977Z,17.04
2022-10-17T01:19:50.910Z,17.00
2022-10-17T01:22:26.603Z,16.93
2022-10-17T01:25:24.716Z,16.87
2022-10-17T01:28:19.219Z,16.88
2022-10-17T01:31:14.839Z,16.84
2022-10-17T01:34:02.252Z,16.81
2022-10-17T01:36:41.894Z,16.79
2022-10-17T01:39:19.598Z,16.79
2022-10-17T01:41:56.571Z,16.83
2022-10-17T01:44:34.490Z,16.70
2022-10-17T01:47:09.086Z,16.55
2022-10-17T01:49:41.602Z,16.53
2022-10-17T01:52:14.370Z,16.58
2022-10-17T01:54:47.658Z,16.64
2022-10-17T01:57:27.948Z,16.65
2022-10-17T01:59:57.547Z,16.63
2022-10-17T02:02:28.496Z,16.59
2022-10-17T02:04:57.911Z,16.64
2022-10-17T02:07:26.534Z,16.66
2022-10-17T02:09:54.791Z,16.68
2022-10-17T02:12:46.243Z,16.72
2022-10-17T02:16:02.089Z,16.70
2022-10-17T02:18:58.705Z,16.71
2022-10-17T02:21:37.514Z,16.73
2022-10-17T02:24:18.420Z,16.77
2022-10-17T02:26:54.296Z,16.75
2022-10-17T02:29:28.917Z,16.75
2022-10-17T02:32:02.030Z,16.71
2022-10-17T02:34:36.212Z,16.70
2022-10-17T02:37:08.300Z,16.61
2022-10-17T02:39:39.799Z,16.60
2022-10-17T02:42:12.219Z,16.58
2022-10-17T02:44:44.247Z,16.57
2022-10-17T02:47:22.838Z,16.54
2022-10-17T02:49:56.746Z,16.50
2022-10-17T02:52:35.035Z,16.44
2022-10-17T02:55:12.509Z,16.43
2022-10-17T02:57:46.980Z,16.44
2022-10-17T03:00:17.522Z,16.42
2022-10-17T03:02:50.914Z,16.40
2022-10-17T03:05:24.576Z,16.40
2022-10-17T03:07:54.175Z,16.34
2022-10-17T03:10:22.665Z,16.32
2022-10-17T03:12:51.017Z,16.27
2022-10-17T03:15:20.075Z,16.27
2022-10-17T03:17:48.346Z,16.29
2022-10-17T03:20:16.612Z,16.27
2022-10-17T03:22:46.014Z,16.26
2022-10-17T03:25:14.156Z,16.23
2022-10-17T03:27:42.356Z,16.17
2022-10-17T03:30:11.561Z,16.17
2022-10-17T03:32:40.451Z,16.16
2022-10-17T03:35:13.994Z,16.09
2022-10-17T03:37:47.066Z,16.10
2022-10-17T03:40:16.499Z,16.10
2022-10-17T03:42:45.053Z,16.07
2022-10-17T03:45:13.155Z,16.05
2022-10-17T03:47:41.345Z,16.03
2022-10-17T03:50:10.526Z,16.02
2022-10-17T03:52:40.114Z,15.99
2022-10-17T03:55:10.314Z,16.00
2022-10-17T03:57:41.068Z,16.01
2022-10-17T04:00:13.621Z,16.00
2022-10-17T04:02:51.869Z,16.00
2022-10-17T04:05:20.724Z,16.03
2022-10-17T04:07:49.352Z,15.99
2022-10-17T04:10:20.475Z,16.03
2022-10-17T04:12:48.863Z,16.03
2022-10-17T04:15:17.079Z,16.08
2022-10-17T04:17:48.508Z,16.11
2022-10-17T04:20:17.398Z,16.16
2022-10-17T04:22:45.455Z,16.24
2022-10-17T04:25:14.907Z,16.15
2022-10-17T04:27:48.937Z,16.25
2022-10-17T04:30:17.654Z,16.24
2022-10-17T04:32:46.193Z,16.25
2022-10-17T04:35:19.891Z,16.21
2022-10-17T04:37:53.030Z,16.24
2022-10-17T04:40:22.354Z,16.25
2022-10-17T04:42:54.522Z,16.27
2022-10-17T04:45:27.972Z,16.28
2022-10-17T04:48:01.406Z,16.27
2022-10-17T04:50:29.532Z,16.22
2022-10-17T04:53:23.915Z,16.21
2022-10-17T04:55:52.513Z,16.24
2022-10-17T04:58:22.178Z,16.29
2022-10-17T05:00:51.615Z,16.33
2022-10-17T05:03:23.671Z,16.34
2022-10-17T05:05:51.978Z,16.38
2022-10-17T05:08:20.193Z,16.47
2022-10-17T05:10:48.235Z,16.41
2022-10-17T05:13:17.033Z,16.47
2022-10-17T05:15:46.395Z,16.45
2022-10-17T05:18:14.480Z,16.49
2022-10-17T05:20:44.794Z,16.42
2022-10-17T05:23:12.939Z,16.35
2022-10-17T05:25:44.073Z,16.28
2022-10-17T05:28:12.910Z,16.31
2022-10-17T05:30:43.279Z,16.35
2022-10-17T05:33:12.804Z,16.35
2022-10-17T05:35:41.624Z,16.35
2022-10-17T05:38:09.855Z,16.34
2022-10-17T05:40:39.477Z,16.36
2022-10-17T05:43:07.812Z,16.41
2022-10-17T05:45:37.301Z,16.43
2022-10-17T05:48:06.312Z,16.42
2022-10-17T05:50:35.919Z,16.38
2022-10-17T05:53:11.627Z,16.45
2022-10-17T05:55:45.880Z,16.41
2022-10-17T05:58:21.873Z,16.42
2022-10-17T06:00:59.751Z,16.40
2022-10-17T06:03:28.772Z,16.38
2022-10-17T06:06:03.610Z,16.47
2022-10-17T06:08:31.672Z,16.47
2022-10-17T06:11:03.868Z,16.50
2022-10-17T06:13:34.445Z,16.56
2022-10-17T06:16:09.442Z,16.67
2022-10-17T06:18:37.612Z,16.61
2022-10-17T06:21:11.125Z,16.66
2022-10-17T06:23:43.911Z,16.67
2022-10-17T06:26:18.393Z,16.68
2022-10-17T06:28:47.101Z,16.74
2022-10-17T06:31:17.811Z,16.77
2022-10-17T06:33:46.300Z,16.79
2022-10-17T06:36:16.414Z,16.82
2022-10-17T06:38:46.557Z,16.72
2022-10-17T06:41:21.982Z,16.82
2022-10-17T06:43:53.506Z,16.91
2022-10-17T06:46:47.960Z,16.96
2022-10-17T06:49:18.287Z,16.99
2022-10-17T06:52:14.657Z,17.04
2022-10-17T06:54:52.768Z,17.13
2022-10-17T06:57:41.458Z,17.16
2022-10-17T07:00:28.365Z,17.19
2022-10-17T07:02:58.269Z,17.27
2022-10-17T07:05:26.312Z,17.28
2022-10-17T07:07:55.678Z,17.29
2022-10-17T07:10:49.731Z,17.30
2022-10-17T07:13:19.310Z,17.32
2022-10-17T07:15:48.086Z,17.40
2022-10-17T07:18:16.196Z,17.50
2022-10-17T07:20:44.368Z,17.61
2022-10-17T07:23:13.818Z,17.67
2022-10-17T07:25:42.101Z,17.72
2022-10-17T07:28:11.236Z,17.74
2022-10-17T07:30:40.011Z,17.85
2022-10-17T07:33:11.242Z,17.95
2022-10-17T07:35:41.817Z,18.02
2022-10-17T07:38:10.187Z,18.14
2022-10-17T07:40:39.866Z,18.26
2022-10-17T07:43:07.981Z,18.28
2022-10-17T07:45:36.026Z,18.47
2022-10-17T07:48:04.340Z,18.51
2022-10-17T07:50:33.084Z,18.60
2022-10-17T07:53:01.254Z,18.68
2022-10-17T07:55:29.384Z,18.79
2022-10-17T07:58:00.377Z,18.86
2022-10-17T08:00:28.721Z,18.88
2022-10-17T08:02:56.808Z,18.93
2022-10-17T08:05:24.884Z,19.04
2022-10-17T08:07:52.974Z,19.12
2022-10-17T08:10:21.425Z,19.18
2022-10-17T08:12:49.573Z,19.28
2022-10-17T08:15:19.191Z,19.36
2022-10-17T08:17:47.248Z,19.40
2022-10-17T08:20:15.310Z,19.48
2022-10-17T08:22:43.823Z,19.55
2022-10-17T08:25:11.940Z,19.58
2022-10-17T08:27:40.042Z,19.74
2022-10-17T08:30:10.018Z,19.80
2022-10-17T08:32:39.364Z,19.89
2022-10-17T08:35:08.675Z,20.01
2022-10-17T08:37:37.222Z,20.09
2022-10-17T08:40:07.195Z,20.16
2022-10-17T08:43:05.849Z,20.27
2022-10-17T08:45:39.922Z,20.38
2022-10-17T08:48:13.806Z,20.46
2022-10-17T08:50:46.582Z,20.56
2022-10-17T08:53:21.815Z,20.66
2022-10-17T08:55:52.068Z,20.80
2022-10-17T08:58:24.561Z,20.97
2022-10-17T09:01:09.049Z,21.04
2022-10-17T09:03:53.872Z,21.06
2022-10-17T09:06:29.878Z,21.08
2022-10-17T09:09:22.336Z,21.10
2022-10-17T09:12:04.490Z,21.18
2022-10-17T09:14:56.299Z,21.21
2022-10-17T09:17:39.205Z,21.30
2022-10-17T09:20:15.976Z,21.41
2022-10-17T09:22:50.885Z,21.44
2022-10-17T09:25:21.718Z,21.52
2022-10-17T09:27:53.530Z,21.62
2022-10-17T09:30:45.928Z,21.72
2022-10-17T09:33:35.137Z,21.82
2022-10-17T09:36:15.016Z,21.96
2022-10-17T09:38:48.343Z,22.02
2022-10-17T09:44:22.816Z,22.16
2022-10-17T09:47:10.035Z,22.30
2022-10-17T09:49:40.628Z,22.39
2022-10-17T09:52:17.789Z,22.54
2022-10-17T09:54:49.386Z,22.66
2022-10-17T09:57:20.101Z,22.78
2022-10-17T09:59:58.631Z,22.79
2022-10-17T10:02:29.948Z,22.79
2022-10-17T10:05:04.056Z,22.86
2022-10-17T10:07:37.162Z,22.80
2022-10-17T10:10:09.034Z,22.86
2022-10-17T10:12:40.413Z,22.83
2022-10-17T10:15:40.969Z,22.85
2022-10-17T10:18:33.761Z,22.91
2022-10-17T10:21:12.553Z,22.98
2022-10-17T10:23:43.793Z,23.10
2022-10-17T10:26:23.598Z,23.23
2022-10-17T10:28:59.522Z,23.34
2022-10-17T10:31:32.057Z,23.46
2022-10-17T10:34:22.721Z,23.53
2022-10-17T10:36:57.327Z,23.64
2022-10-17T10:39:43.146Z,23.82
2022-10-17T10:42:24.093Z,23.85
2022-10-17T10:44:54.309Z,23.95
2022-10-17T10:47:27.385Z,24.07
2022-10-17T10:50:23.913Z,24.06
2022-10-17T10:53:10.899Z,24.17
2022-10-17T10:55:49.234Z,24.21
2022-10-17T10:58:33.717Z,24.29
2022-10-17T11:01:20.193Z,24.34
2022-10-17T11:04:02.036Z,24.37
2022-10-17T11:06:36.879Z,24.42
2022-10-17T11:09:19.192Z,24.52
2022-10-17T11:11:55.635Z,24.60
2022-10-17T11:14:35.795Z,24.67
2022-10-17T11:17:13.581Z,24.72
2022-10-17T11:19:49.499Z,24.74
2022-10-17T11:22:28.176Z,24.76
2022-10-17T11:25:03.047Z,24.85
2022-10-17T11:27:34.892Z,24.87
2022-10-17T11:30:03.763Z,24.97
2022-10-17T11:32:39.976Z,25.01
2022-10-17T11:35:20.658Z,25.11
2022-10-17T11:37:57.168Z,25.14
2022-10-17T11:40:34.337Z,25.27
2022-10-17T11:43:12.153Z,25.31
2022-10-17T11:45:46.718Z,25.35
2022-10-17T11:48:22.434Z,25.36
2022-10-17T11:53:55.340Z,25.44
2022-10-17T11:56:30.810Z,25.51
2022-10-17T11:59:28.261Z,25.51
2022-10-17T12:02:02.121Z,25.53
2022-10-17T12:04:49.617Z,25.50
2022-10-17T12:07:26.625Z,25.55
2022-10-17T12:10:04.380Z,25.64
2022-10-17T12:12:35.544Z,25.62
2022-10-17T12:15:32.532Z,25.56
2022-10-17T12:18:02.986Z,25.57
2022-10-17T12:20:34.711Z,25.66
2022-10-17T12:23:28.895Z,25.67
2022-10-17T12:26:03.309Z,25.68
2022-10-17T12:28:34.395Z,25.71
2022-10-17T12:31:09.909Z,25.70
2022-10-17T12:33:49.226Z,25.71
2022-10-17T12:36:48.018Z,25.72
2022-10-17T12:39:43.686Z,25.75
2022-10-17T12:42:49.176Z,25.62
2022-10-17T12:45:47.045Z,25.56
2022-10-17T12:49:02.157Z,25.39
2022-10-17T12:51:38.161Z,25.35
2022-10-17T12:54:13.712Z,25.23
2022-10-17T12:56:45.496Z,25.19
2022-10-17T12:59:18.762Z,25.04
2022-10-17T13:01:51.048Z,25.01
2022-10-17T13:04:21.454Z,24.96
2022-10-17T13:06:54.126Z,24.94
2022-10-17T13:09:31.251Z,24.91
2022-10-17T13:12:04.374Z,24.82
2022-10-17T13:14:34.940Z,24.81
2022-10-17T13:17:06.336Z,24.80
2022-10-17T13:19:44.830Z,24.79
2022-10-17T13:22:17.564Z,24.74
2022-10-17T13:24:46.713Z,24.75
2022-10-17T13:27:28.466Z,24.71
2022-10-17T13:29:58.471Z,24.68
2022-10-17T13:32:36.233Z,24.64
2022-10-17T13:35:11.658Z,24.61
2022-10-17T13:37:42.524Z,24.62
2022-10-17T13:40:40.886Z,24.62
2022-10-17T13:43:19.790Z,24.57
2022-10-17T13:45:51.417Z,24.49
2022-10-17T13:48:22.868Z,24.52
2022-10-17T13:50:56.349Z,24.45
2022-10-17T13:53:31.146Z,24.34
2022-10-17T13:56:26.498Z,24.30
2022-10-17T13:58:53.950Z,24.27
2022-10-17T14:01:23.074Z,24.21
2022-10-17T14:04:01.135Z,24.23
2022-10-17T14:06:45.121Z,24.17
2022-10-17T14:09:23.276Z,24.15
2022-10-17T14:12:02.760Z,24.13
2022-10-17T14:14:41.664Z,24.06
2022-10-17T14:17:26.146Z,24.14
2022-10-17T14:20:16.070Z,24.11
2022-10-17T14:22:50.661Z,24.10
2022-10-17T14:25:30.702Z,24.07
2022-10-17T14:28:08.069Z,24.04
2022-10-17T14:30:55.667Z,24.06
2022-10-17T14:33:28.084Z,23.99
2022-10-17T14:35:58.643Z,24.03
2022-10-17T14:38:30.630Z,23.96
2022-10-17T14:41:37.335Z,23.98
2022-10-17T14:44:02.614Z,24.00
2022-10-17T14:46:31.134Z,24.01
2022-10-17T14:49:06.942Z,23.94
2022-10-17T14:54:29.066Z,23.86
2022-10-17T14:56:57.339Z,23.85
2022-10-17T14:59:52.134Z,23.78
2022-10-17T15:02:15.312Z,23.77
2022-10-17T15:04:43.444Z,23.72
2022-10-17T15:07:15.981Z,23.71
2022-10-17T15:09:48.518Z,23.69
2022-10-17T15:12:19.519Z,23.67
2022-10-17T15:14:50.175Z,23.67
2022-10-17T15:17:21.540Z,23.69
2022-10-17T15:19:50.488Z,23.66
2022-10-17T15:22:19.110Z,23.66
2022-10-17T15:24:48.744Z,23.68
2022-10-17T15:27:18.682Z,23.67
2022-10-17T15:29:47.631Z,23.66
2022-10-17T15:32:16.126Z,23.63
2022-10-17T15:34:44.853Z,23.59
2022-10-17T15:37:21.924Z,23.59
2022-10-17T15:39:54.660Z,23.53
2022-10-17T15:42:27.569Z,23.46
2022-10-17T15:44:55.796Z,23.42
2022-10-17T15:47:26.832Z,23.40
2022-10-17T15:49:56.066Z,23.33
2022-10-17T15:52:24.949Z,23.29
2022-10-17T15:54:57.283Z,23.24
2022-10-17T15:57:31.663Z,23.20
2022-10-17T16:00:01.560Z,23.15
2022-10-17T16:02:29.693Z,23.10
2022-10-17T16:04:57.792Z,23.05
2022-10-17T16:07:25.933Z,23.02
2022-10-17T16:09:55.340Z,22.96
2022-10-17T16:12:31.077Z,22.91
2022-10-17T16:14:59.349Z,22.82
2022-10-17T16:17:27.610Z,22.78
2022-10-17T16:19:56.081Z,22.73
2022-10-17T16:22:32.255Z,22.71
2022-10-17T16:25:09.285Z,22.68
2022-10-17T16:27:38.286Z,22.60
2022-10-17T16:30:08.975Z,22.56
2022-10-17T16:32:37.093Z,22.50
2022-10-17T16:35:06.868Z,22.46
2022-10-17T16:37:35.775Z,22.37
2022-10-17T16:40:06.259Z,22.33
2022-10-17T16:42:34.337Z,22.26
2022-10-17T16:45:02.704Z,22.20
2022-10-17T16:47:31.316Z,22.10
2022-10-17T16:49:59.353Z,22.03
2022-10-17T16:52:27.538Z,21.96
2022-10-17T16:54:55.921Z,21.86
2022-10-17T16:57:25.282Z,21.80
2022-10-17T16:59:53.318Z,21.74
2022-10-17T17:02:21.679Z,21.67
2022-10-17T17:04:49.762Z,21.58
2022-10-17T17:07:18.496Z,21.52
2022-10-17T17:09:46.587Z,21.44
2022-10-17T17:12:14.733Z,21.37
2022-10-17T17:14:44.156Z,21.29
2022-10-17T17:17:19.628Z,21.23
2022-10-17T17:20:00.408Z,21.13
2022-10-17T17:22:28.446Z,21.08
2022-10-17T17:24:56.479Z,21.05
2022-10-17T17:27:25.124Z,20.98
2022-10-17T17:29:54.491Z,20.92
2022-10-17T17:32:22.615Z,20.82
2022-10-17T17:34:50.598Z,20.76
2022-10-17T17:37:18.599Z,20.74
2022-10-17T17:39:46.733Z,20.65
2022-10-17T17:42:14.889Z,20.56
2022-10-17T17:44:42.924Z,20.48
2022-10-17T17:47:12.393Z,20.52
2022-10-17T17:49:40.425Z,20.54
2022-10-17T17:52:08.491Z,20.47
2022-10-17T17:54:40.054Z,20.51
2022-10-17T17:57:09.223Z,20.48
2022-10-17T17:59:41.146Z,20.54
2022-10-17T18:02:10.434Z,20.43
2022-10-17T18:04:39.957Z,20.38
2022-10-17T18:07:08.130Z,20.35
2022-10-17T18:09:36.160Z,20.31
2022-10-17T18:12:04.433Z,20.18
2022-10-17T18:14:32.431Z,20.17
2022-10-17T18:17:00.503Z,20.08
2022-10-17T18:19:29.086Z,20.03
2022-10-17T18:21:58.452Z,20.06
2022-10-17T18:24:26.621Z,20.00
2022-10-17T18:26:59.540Z,19.94
2022-10-17T18:29:29.350Z,19.91
2022-10-17T18:31:57.534Z,19.81
2022-10-17T18:34:27.156Z,19.82
2022-10-17T18:36:55.451Z,19.77
2022-10-17T18:39:25.185Z,19.75
2022-10-17T18:41:53.543Z,19.65
2022-10-17T18:44:21.636Z,19.61
2022-10-17T18:46:49.972Z,19.59
2022-10-17T18:49:20.383Z,19.60
2022-10-17T18:51:48.541Z,19.58
2022-10-17T18:54:20.440Z,19.59
2022-10-17T18:56:52.180Z,19.55
2022-10-17T18:59:21.004Z,19.51
2022-10-17T19:01:49.743Z,19.50
2022-10-17T19:04:18.110Z,19.45
2022-10-17T19:06:46.420Z,19.41
2022-10-17T19:09:17.765Z,19.46
2022-10-17T19:11:45.854Z,19.37
2022-10-17T19:14:15.385Z,19.38
2022-10-17T19:16:46.542Z,19.21
2022-10-17T19:19:19.548Z,19.18
2022-10-17T19:21:48.814Z,19.22
2022-10-17T19:24:19.681Z,19.20
2022-10-17T19:26:50.550Z,19.20
2022-10-17T19:29:21.438Z,19.19
2022-10-17T19:31:50.254Z,19.18
2022-10-17T19:34:19.749Z,19.20
2022-10-17T19:36:48.428Z,19.07
2022-10-17T19:39:19.043Z,19.02
2022-10-17T19:41:49.158Z,19.09
2022-10-17T19:44:19.309Z,19.07
2022-10-17T19:46:49.011Z,19.09
2022-10-17T19:49:18.579Z,19.06
2022-10-17T19:51:46.729Z,19.04
2022-10-17T19:54:18.123Z,19.01
2022-10-17T19:56:46.137Z,19.04
2022-10-17T19:59:16.314Z,18.98
2022-10-17T20:01:46.630Z,18.91
2022-10-17T20:04:14.964Z,18.88
2022-10-17T20:06:43.221Z,18.82
2022-10-17T20:09:17.361Z,18.75
2022-10-17T20:11:46.169Z,18.71
2022-10-17T20:14:18.766Z,18.71
2022-10-17T20:16:53.359Z,18.75
2022-10-17T20:19:21.831Z,18.83
2022-10-17T20:21:49.882Z,18.86
2022-10-17T20:24:18.758Z,18.96
2022-10-17T20:26:47.306Z,18.93
2022-10-17T20:29:19.349Z,18.98
2022-10-17T20:31:49.753Z,18.97
2022-10-17T20:34:19.805Z,18.97
2022-10-17T20:36:48.797Z,19.01
2022-10-17T20:39:20.970Z,19.03
2022-10-17T20:41:49.338Z,18.98
2022-10-17T20:44:17.446Z,18.98
2022-10-17T20:47:00.613Z,18.99
2022-10-17T20:49:33.508Z,19.06
2022-10-17T20:52:02.562Z,19.01
2022-10-17T20:54:31.269Z,18.95
2022-10-17T20:57:02.491Z,18.94
2022-10-17T20:59:34.246Z,18.94
2022-10-17T21:02:02.366Z,18.95
2022-10-17T21:04:46.036Z,19.00
2022-10-17T21:07:15.750Z,18.94
2022-10-17T21:09:43.908Z,18.92
2022-10-17T21:12:18.108Z,18.95
2022-10-17T21:14:54.337Z,18.92
2022-10-17T21:17:22.482Z,18.89
2022-10-17T21:19:52.064Z,18.88
2022-10-17T21:22:20.152Z,18.80
2022-10-17T21:24:48.207Z,18.66
2022-10-17T21:27:19.505Z,18.62
2022-10-17T21:29:48.724Z,18.60
2022-10-17T21:32:31.832Z,18.52
2022-10-17T21:35:07.794Z,18.48
2022-10-17T21:37:35.948Z,18.41
2022-10-17T21:40:04.244Z,18.35
2022-10-17T21:42:32.597Z,18.31
2022-10-17T21:45:00.843Z,18.32
2022-10-17T21:47:29.588Z,18.30
2022-10-17T21:49:57.595Z,18.31
2022-10-17T21:52:27.033Z,18.32
2022-10-17T21:54:55.098Z,18.33
2022-10-17T21:57:23.144Z,18.33
2022-10-17T21:59:51.213Z,18.42
2022-10-17T22:02:19.258Z,18.32
2022-10-17T22:04:47.326Z,18.29
2022-10-17T22:07:15.412Z,18.25
2022-10-17T22:09:45.110Z,18.19
2022-10-17T22:12:13.225Z,18.17
2022-10-17T22:14:41.321Z,18.18
2022-10-17T22:17:09.371Z,18.18
2022-10-17T22:19:37.486Z,18.19
2022-10-17T22:22:05.528Z,18.16
2022-10-17T22:24:33.717Z,18.18
2022-10-17T22:27:03.132Z,18.13
2022-10-17T22:29:31.378Z,18.07
2022-10-17T22:31:59.437Z,18.07
2022-10-17T22:34:27.665Z,18.02
2022-10-17T22:36:55.746Z,18.08
2022-10-17T22:39:23.785Z,18.02
2022-10-17T22:41:51.810Z,17.99
2022-10-17T22:44:21.168Z,17.99
2022-10-17T22:46:49.635Z,18.02
2022-10-17T22:49:17.868Z,18.00
2022-10-17T22:51:45.893Z,17.95
2022-10-17T22:54:13.898Z,17.95
2022-10-17T22:56:42.103Z,17.94
2022-10-17T22:59:10.099Z,17.90
2022-10-17T23:01:39.545Z,17.90
2022-10-17T23:04:07.625Z,17.89
2022-10-17T23:06:35.675Z,17.88
2022-10-17T23:09:03.975Z,17.94
2022-10-17T23:11:31.995Z,17.91
2022-10-17T23:14:00.081Z,17.92
2022-10-17T23:16:28.291Z,17.84
2022-10-17T23:18:58.651Z,17.84
2022-10-17T23:21:26.803Z,17.85
2022-10-17T23:23:54.841Z,17.83
2022-10-17T23:26:22.857Z,17.86
2022-10-17T23:28:55.925Z,17.85
2022-10-17T23:31:24.126Z,17.87
2022-10-17T23:33:52.126Z,17.86
2022-10-17T23:36:22.705Z,17.88
2022-10-17T23:38:53.727Z,17.84
2022-10-17T23:41:24.752Z,17.83
2022-10-17T23:43:52.808Z,17.82
2022-10-17T23:46:20.858Z,17.83
2022-10-17T23:48:48.925Z,17.87
2022-10-17T23:51:17.145Z,17.87
2022-10-17T23:53:46.550Z,17.87
2022-10-17T23:56:15.122Z,17.90
2022-10-17T23:58:43.173Z,17.86
